sensor_id;sensor_type;location;lat;lon;timestamp;P1;durP1;ratioP1;P2;durP2;ratioP2
48853;SDS011;34673;52.808;17.856;2022-10-15T00:01:10;80.85;;;46.03;;
48853;SDS011;34673;52.808;17.856;2022-10-15T00:03:40;88.78;;;47.33;;
48853;SDS011;34673;52.808;17.856;2022-10-15T00:06:12;86.68;;;47.20;;
48853;SDS011;34673;52.808;17.856;2022-10-15T00:08:42;81.03;;;45.80;;
48853;SDS011;34673;52.808;17.856;2022-10-15T00:11:14;79.85;;;46.05;;
48853;SDS011;34673;52.808;17.856;2022-10-15T00:13:44;79.32;;;44.55;;
48853;SDS011;34673;52.808;17.856;2022-10-15T00:16:13;79.85;;;44.88;;
48853;SDS011;34673;52.808;17.856;2022-10-15T00:18:42;82.32;;;46.47;;
48853;SDS011;34673;52.808;17.856;2022-10-15T00:21:10;75.68;;;43.67;;
48853;SDS011;34673;52.808;17.856;2022-10-15T00:23:38;79.93;;;44.60;;
48853;SDS011;34673;52.808;17.856;2022-10-15T00:26:12;82.40;;;45.70;;
48853;SDS011;34673;52.808;17.856;2022-10-15T00:28:48;76.95;;;44.45;;
48853;SDS011;34673;52.808;17.856;2022-10-15T00:31:21;84.10;;;45.95;;
48853;SDS011;34673;52.808;17.856;2022-10-15T00:33:50;79.65;;;45.40;;
48853;SDS011;34673;52.808;17.856;2022-10-15T00:36:20;78.35;;;45.15;;
48853;SDS011;34673;52.808;17.856;2022-10-15T00:38:49;75.90;;;43.42;;
48853;SDS011;34673;52.808;17.856;2022-10-15T00:41:21;77.55;;;43.88;;
48853;SDS011;34673;52.808;17.856;2022-10-15T00:46:24;84.28;;;44.60;;
48853;SDS011;34673;52.808;17.856;2022-10-15T00:49:12;77.80;;;45.65;;
48853;SDS011;34673;52.808;17.856;2022-10-15T00:54:30;81.28;;;45.50;;
48853;SDS011;34673;52.808;17.856;2022-10-15T00:57:00;77.82;;;43.78;;
48853;SDS011;34673;52.808;17.856;2022-10-15T00:59:27;71.43;;;42.35;;
48853;SDS011;34673;52.808;17.856;2022-10-15T01:01:57;78.60;;;43.20;;
48853;SDS011;34673;52.808;17.856;2022-10-15T01:04:26;75.60;;;42.25;;
48853;SDS011;34673;52.808;17.856;2022-10-15T01:06:55;79.88;;;44.55;;
48853;SDS011;34673;52.808;17.856;2022-10-15T01:09:22;74.97;;;43.40;;
48853;SDS011;34673;52.808;17.856;2022-10-15T01:11:50;78.68;;;44.63;;
48853;SDS011;34673;52.808;17.856;2022-10-15T01:14:38;78.57;;;44.55;;
48853;SDS011;34673;52.808;17.856;2022-10-15T01:17:20;83.10;;;45.00;;
48853;SDS011;34673;52.808;17.856;2022-10-15T01:27:41;81.53;;;43.22;;
48853;SDS011;34673;52.808;17.856;2022-10-15T01:41:10;74.90;;;43.95;;
48853;SDS011;34673;52.808;17.856;2022-10-15T01:47:22;81.32;;;44.25;;
48853;SDS011;34673;52.808;17.856;2022-10-15T01:49:53;77.03;;;41.88;;
48853;SDS011;34673;52.808;17.856;2022-10-15T01:52:22;76.00;;;43.67;;
48853;SDS011;34673;52.808;17.856;2022-10-15T01:54:53;75.40;;;42.38;;
48853;SDS011;34673;52.808;17.856;2022-10-15T01:57:22;67.50;;;39.83;;
48853;SDS011;34673;52.808;17.856;2022-10-15T01:59:52;76.65;;;44.05;;
48853;SDS011;34673;52.808;17.856;2022-10-15T02:02:22;71.00;;;41.90;;
48853;SDS011;34673;52.808;17.856;2022-10-15T02:04:49;69.28;;;41.25;;
48853;SDS011;34673;52.808;17.856;2022-10-15T02:15:44;74.57;;;41.50;;
48853;SDS011;34673;52.808;17.856;2022-10-15T02:18:29;75.57;;;43.85;;
48853;SDS011;34673;52.808;17.856;2022-10-15T02:21:18;75.78;;;43.17;;
48853;SDS011;34673;52.808;17.856;2022-10-15T02:23:56;74.30;;;42.28;;
48853;SDS011;34673;52.808;17.856;2022-10-15T02:26:32;78.15;;;43.05;;
48853;SDS011;34673;52.808;17.856;2022-10-15T02:29:00;72.60;;;42.92;;
48853;SDS011;34673;52.808;17.856;2022-10-15T02:31:31;77.32;;;43.50;;
48853;SDS011;34673;52.808;17.856;2022-10-15T02:34:02;72.68;;;41.65;;
48853;SDS011;34673;52.808;17.856;2022-10-15T02:36:31;72.90;;;42.60;;
48853;SDS011;34673;52.808;17.856;2022-10-15T02:39:03;74.93;;;42.55;;
48853;SDS011;34673;52.808;17.856;2022-10-15T02:41:33;70.85;;;41.05;;
48853;SDS011;34673;52.808;17.856;2022-10-15T02:44:02;76.25;;;42.13;;
48853;SDS011;34673;52.808;17.856;2022-10-15T02:46:29;72.85;;;41.17;;
48853;SDS011;34673;52.808;17.856;2022-10-15T02:48:57;74.00;;;41.67;;
48853;SDS011;34673;52.808;17.856;2022-10-15T02:51:25;77.00;;;41.38;;
48853;SDS011;34673;52.808;17.856;2022-10-15T02:53:52;69.97;;;40.40;;
48853;SDS011;34673;52.808;17.856;2022-10-15T02:56:19;74.75;;;43.20;;
48853;SDS011;34673;52.808;17.856;2022-10-15T02:58:46;69.72;;;38.88;;
48853;SDS011;34673;52.808;17.856;2022-10-15T03:01:14;72.70;;;41.67;;
48853;SDS011;34673;52.808;17.856;2022-10-15T03:03:41;77.43;;;43.10;;
48853;SDS011;34673;52.808;17.856;2022-10-15T03:06:08;78.85;;;43.50;;
48853;SDS011;34673;52.808;17.856;2022-10-15T03:08:36;66.43;;;39.08;;
48853;SDS011;34673;52.808;17.856;2022-10-15T03:11:04;73.18;;;41.30;;
48853;SDS011;34673;52.808;17.856;2022-10-15T03:13:34;71.97;;;40.33;;
48853;SDS011;34673;52.808;17.856;2022-10-15T03:16:05;67.07;;;39.47;;
48853;SDS011;34673;52.808;17.856;2022-10-15T03:18:39;72.57;;;40.45;;
48853;SDS011;34673;52.808;17.856;2022-10-15T03:21:08;72.55;;;40.58;;
48853;SDS011;34673;52.808;17.856;2022-10-15T03:23:36;70.35;;;41.08;;
48853;SDS011;34673;52.808;17.856;2022-10-15T03:26:08;77.20;;;42.80;;
48853;SDS011;34673;52.808;17.856;2022-10-15T03:28:36;74.88;;;41.58;;
48853;SDS011;34673;52.808;17.856;2022-10-15T03:31:04;72.03;;;41.70;;
48853;SDS011;34673;52.808;17.856;2022-10-15T03:33:32;70.72;;;40.30;;
48853;SDS011;34673;52.808;17.856;2022-10-15T03:36:00;74.78;;;42.20;;
48853;SDS011;34673;52.808;17.856;2022-10-15T03:38:27;77.43;;;42.40;;
48853;SDS011;34673;52.808;17.856;2022-10-15T03:40:56;71.07;;;41.50;;
48853;SDS011;34673;52.808;17.856;2022-10-15T03:43:34;74.63;;;42.42;;
48853;SDS011;34673;52.808;17.856;2022-10-15T03:46:07;79.28;;;43.80;;
48853;SDS011;34673;52.808;17.856;2022-10-15T03:48:39;82.00;;;44.47;;
48853;SDS011;34673;52.808;17.856;2022-10-15T03:51:08;77.35;;;43.63;;
48853;SDS011;34673;52.808;17.856;2022-10-15T03:53:36;76.15;;;42.25;;
48853;SDS011;34673;52.808;17.856;2022-10-15T03:56:04;75.72;;;42.47;;
48853;SDS011;34673;52.808;17.856;2022-10-15T03:58:36;77.53;;;44.13;;
48853;SDS011;34673;52.808;17.856;2022-10-15T04:01:08;78.13;;;42.67;;
48853;SDS011;34673;52.808;17.856;2022-10-15T04:03:37;74.88;;;42.55;;
48853;SDS011;34673;52.808;17.856;2022-10-15T04:06:04;76.05;;;43.25;;
48853;SDS011;34673;52.808;17.856;2022-10-15T04:08:33;75.75;;;42.80;;
48853;SDS011;34673;52.808;17.856;2022-10-15T04:11:11;78.95;;;42.75;;
48853;SDS011;34673;52.808;17.856;2022-10-15T04:13:38;78.25;;;41.45;;
48853;SDS011;34673;52.808;17.856;2022-10-15T04:16:06;85.03;;;45.55;;
48853;SDS011;34673;52.808;17.856;2022-10-15T04:18:33;78.88;;;42.90;;
48853;SDS011;34673;52.808;17.856;2022-10-15T04:21:01;70.93;;;41.45;;
48853;SDS011;34673;52.808;17.856;2022-10-15T04:23:31;77.55;;;42.63;;
48853;SDS011;34673;52.808;17.856;2022-10-15T04:26:27;76.80;;;41.17;;
48853;SDS011;34673;52.808;17.856;2022-10-15T04:28:58;77.03;;;40.83;;
48853;SDS011;34673;52.808;17.856;2022-10-15T04:31:26;83.03;;;44.67;;
48853;SDS011;34673;52.808;17.856;2022-10-15T04:33:55;69.25;;;39.92;;
48853;SDS011;34673;52.808;17.856;2022-10-15T04:36:23;72.00;;;40.88;;
48853;SDS011;34673;52.808;17.856;2022-10-15T04:38:58;79.18;;;43.40;;
48853;SDS011;34673;52.808;17.856;2022-10-15T04:41:33;77.40;;;42.00;;
48853;SDS011;34673;52.808;17.856;2022-10-15T04:44:06;70.10;;;40.60;;
48853;SDS011;34673;52.808;17.856;2022-10-15T04:46:35;78.75;;;44.75;;
48853;SDS011;34673;52.808;17.856;2022-10-15T04:49:19;71.13;;;40.53;;
48853;SDS011;34673;52.808;17.856;2022-10-15T04:51:46;80.47;;;44.28;;
48853;SDS011;34673;52.808;17.856;2022-10-15T04:54:19;70.57;;;40.47;;
48853;SDS011;34673;52.808;17.856;2022-10-15T04:56:58;74.65;;;40.95;;
48853;SDS011;34673;52.808;17.856;2022-10-15T04:59:26;71.13;;;40.60;;
48853;SDS011;34673;52.808;17.856;2022-10-15T05:02:22;77.03;;;42.95;;
48853;SDS011;34673;52.808;17.856;2022-10-15T05:04:54;71.15;;;41.03;;
48853;SDS011;34673;52.808;17.856;2022-10-15T05:07:22;72.63;;;41.00;;
48853;SDS011;34673;52.808;17.856;2022-10-15T05:09:52;76.13;;;41.25;;
48853;SDS011;34673;52.808;17.856;2022-10-15T05:12:19;87.28;;;44.53;;
48853;SDS011;34673;52.808;17.856;2022-10-15T05:14:46;72.40;;;42.15;;
48853;SDS011;34673;52.808;17.856;2022-10-15T05:17:20;69.13;;;41.13;;
48853;SDS011;34673;52.808;17.856;2022-10-15T05:19:47;77.55;;;42.72;;
48853;SDS011;34673;52.808;17.856;2022-10-15T05:22:19;74.30;;;41.85;;
48853;SDS011;34673;52.808;17.856;2022-10-15T05:24:53;75.47;;;40.97;;
48853;SDS011;34673;52.808;17.856;2022-10-15T05:27:25;69.93;;;39.22;;
48853;SDS011;34673;52.808;17.856;2022-10-15T05:29:53;79.80;;;43.17;;
48853;SDS011;34673;52.808;17.856;2022-10-15T05:32:25;67.97;;;39.38;;
48853;SDS011;34673;52.808;17.856;2022-10-15T05:34:53;68.18;;;40.30;;
48853;SDS011;34673;52.808;17.856;2022-10-15T05:37:20;72.47;;;41.20;;
48853;SDS011;34673;52.808;17.856;2022-10-15T05:39:48;72.93;;;42.92;;
48853;SDS011;34673;52.808;17.856;2022-10-15T05:42:15;67.10;;;39.03;;
48853;SDS011;34673;52.808;17.856;2022-10-15T05:44:50;68.80;;;38.05;;
48853;SDS011;34673;52.808;17.856;2022-10-15T05:47:19;69.93;;;39.72;;
48853;SDS011;34673;52.808;17.856;2022-10-15T05:49:46;75.57;;;41.88;;
48853;SDS011;34673;52.808;17.856;2022-10-15T05:52:21;64.82;;;39.63;;
48853;SDS011;34673;52.808;17.856;2022-10-15T05:55:07;73.10;;;39.67;;
48853;SDS011;34673;52.808;17.856;2022-10-15T05:57:34;65.93;;;37.90;;
48853;SDS011;34673;52.808;17.856;2022-10-15T06:00:04;67.90;;;37.78;;
48853;SDS011;34673;52.808;17.856;2022-10-15T06:02:37;62.88;;;36.40;;
48853;SDS011;34673;52.808;17.856;2022-10-15T06:05:04;68.07;;;37.70;;
48853;SDS011;34673;52.808;17.856;2022-10-15T06:07:32;64.68;;;37.97;;
48853;SDS011;34673;52.808;17.856;2022-10-15T06:10:03;68.88;;;39.22;;
48853;SDS011;34673;52.808;17.856;2022-10-15T06:12:32;62.85;;;36.55;;
48853;SDS011;34673;52.808;17.856;2022-10-15T06:15:00;65.55;;;38.90;;
48853;SDS011;34673;52.808;17.856;2022-10-15T06:17:27;64.95;;;37.20;;
48853;SDS011;34673;52.808;17.856;2022-10-15T06:19:54;66.25;;;36.92;;
48853;SDS011;34673;52.808;17.856;2022-10-15T06:22:21;63.55;;;36.25;;
48853;SDS011;34673;52.808;17.856;2022-10-15T06:24:48;63.22;;;36.45;;
48853;SDS011;34673;52.808;17.856;2022-10-15T06:27:16;67.43;;;38.45;;
48853;SDS011;34673;52.808;17.856;2022-10-15T06:29:43;65.85;;;36.08;;
48853;SDS011;34673;52.808;17.856;2022-10-15T06:32:10;64.15;;;36.50;;
48853;SDS011;34673;52.808;17.856;2022-10-15T06:34:41;64.20;;;35.88;;
48853;SDS011;34673;52.808;17.856;2022-10-15T06:37:09;64.18;;;36.50;;
48853;SDS011;34673;52.808;17.856;2022-10-15T06:39:36;66.78;;;36.15;;
48853;SDS011;34673;52.808;17.856;2022-10-15T06:42:03;59.60;;;34.63;;
48853;SDS011;34673;52.808;17.856;2022-10-15T06:44:37;64.60;;;37.53;;
48853;SDS011;34673;52.808;17.856;2022-10-15T06:47:08;61.13;;;35.28;;
48853;SDS011;34673;52.808;17.856;2022-10-15T06:49:35;64.68;;;35.95;;
48853;SDS011;34673;52.808;17.856;2022-10-15T06:52:03;61.30;;;36.20;;
48853;SDS011;34673;52.808;17.856;2022-10-15T06:54:30;62.60;;;37.65;;
48853;SDS011;34673;52.808;17.856;2022-10-15T06:56:57;63.60;;;36.47;;
48853;SDS011;34673;52.808;17.856;2022-10-15T06:59:24;65.85;;;36.67;;
48853;SDS011;34673;52.808;17.856;2022-10-15T07:01:52;62.13;;;35.60;;
48853;SDS011;34673;52.808;17.856;2022-10-15T07:04:21;65.90;;;37.63;;
48853;SDS011;34673;52.808;17.856;2022-10-15T07:06:49;58.78;;;36.20;;
48853;SDS011;34673;52.808;17.856;2022-10-15T07:09:17;60.97;;;35.05;;
48853;SDS011;34673;52.808;17.856;2022-10-15T07:11:46;60.28;;;34.72;;
48853;SDS011;34673;52.808;17.856;2022-10-15T07:14:13;62.85;;;35.42;;
48853;SDS011;34673;52.808;17.856;2022-10-15T07:16:40;63.20;;;38.92;;
48853;SDS011;34673;52.808;17.856;2022-10-15T07:19:07;84.75;;;52.28;;
48853;SDS011;34673;52.808;17.856;2022-10-15T07:21:34;71.10;;;41.05;;
48853;SDS011;34673;52.808;17.856;2022-10-15T07:24:02;71.07;;;40.47;;
48853;SDS011;34673;52.808;17.856;2022-10-15T07:26:29;62.13;;;36.15;;
48853;SDS011;34673;52.808;17.856;2022-10-15T07:29:00;62.17;;;38.53;;
48853;SDS011;34673;52.808;17.856;2022-10-15T07:31:29;71.35;;;45.22;;
48853;SDS011;34673;52.808;17.856;2022-10-15T07:33:56;69.63;;;40.47;;
48853;SDS011;34673;52.808;17.856;2022-10-15T07:36:24;56.75;;;33.03;;
48853;SDS011;34673;52.808;17.856;2022-10-15T07:38:52;62.17;;;36.05;;
48853;SDS011;34673;52.808;17.856;2022-10-15T07:41:19;60.30;;;34.50;;
48853;SDS011;34673;52.808;17.856;2022-10-15T07:43:47;68.57;;;42.17;;
48853;SDS011;34673;52.808;17.856;2022-10-15T07:48:46;62.03;;;41.15;;
48853;SDS011;34673;52.808;17.856;2022-10-15T07:51:13;57.65;;;32.53;;
48853;SDS011;34673;52.808;17.856;2022-10-15T07:53:41;60.15;;;33.55;;
48853;SDS011;34673;52.808;17.856;2022-10-15T07:56:10;52.50;;;30.80;;
48853;SDS011;34673;52.808;17.856;2022-10-15T07:58:38;53.53;;;33.55;;
48853;SDS011;34673;52.808;17.856;2022-10-15T08:01:06;56.65;;;31.90;;
48853;SDS011;34673;52.808;17.856;2022-10-15T08:03:36;49.97;;;30.63;;
48853;SDS011;34673;52.808;17.856;2022-10-15T08:06:04;54.53;;;32.00;;
48853;SDS011;34673;52.808;17.856;2022-10-15T08:08:33;54.05;;;30.92;;
48853;SDS011;34673;52.808;17.856;2022-10-15T08:11:05;49.42;;;31.02;;
48853;SDS011;34673;52.808;17.856;2022-10-15T08:13:33;49.75;;;30.95;;
48853;SDS011;34673;52.808;17.856;2022-10-15T08:16:01;54.08;;;30.70;;
48853;SDS011;34673;52.808;17.856;2022-10-15T08:18:28;57.10;;;31.17;;
48853;SDS011;34673;52.808;17.856;2022-10-15T08:20:57;51.03;;;29.02;;
48853;SDS011;34673;52.808;17.856;2022-10-15T08:23:26;49.53;;;29.13;;
48853;SDS011;34673;52.808;17.856;2022-10-15T08:25:55;46.53;;;29.20;;
48853;SDS011;34673;52.808;17.856;2022-10-15T08:28:24;50.05;;;28.25;;
48853;SDS011;34673;52.808;17.856;2022-10-15T08:30:52;47.55;;;28.48;;
48853;SDS011;34673;52.808;17.856;2022-10-15T08:33:19;44.28;;;27.17;;
48853;SDS011;34673;52.808;17.856;2022-10-15T08:35:46;47.30;;;29.10;;
48853;SDS011;34673;52.808;17.856;2022-10-15T08:38:13;45.20;;;28.38;;
48853;SDS011;34673;52.808;17.856;2022-10-15T08:40:52;46.50;;;28.77;;
48853;SDS011;34673;52.808;17.856;2022-10-15T08:46:13;46.40;;;25.88;;
48853;SDS011;34673;52.808;17.856;2022-10-15T08:48:47;45.25;;;26.60;;
48853;SDS011;34673;52.808;17.856;2022-10-15T08:51:19;45.60;;;28.02;;
48853;SDS011;34673;52.808;17.856;2022-10-15T08:53:51;47.40;;;26.90;;
48853;SDS011;34673;52.808;17.856;2022-10-15T08:56:29;43.05;;;25.58;;
48853;SDS011;34673;52.808;17.856;2022-10-15T09:01:53;46.45;;;26.60;;
48853;SDS011;34673;52.808;17.856;2022-10-15T09:07:22;45.17;;;26.30;;
48853;SDS011;34673;52.808;17.856;2022-10-15T09:13:26;46.58;;;26.77;;
48853;SDS011;34673;52.808;17.856;2022-10-15T09:18:32;43.30;;;25.98;;
48853;SDS011;34673;52.808;17.856;2022-10-15T09:21:03;45.85;;;27.02;;
48853;SDS011;34673;52.808;17.856;2022-10-15T09:23:31;44.08;;;27.60;;
48853;SDS011;34673;52.808;17.856;2022-10-15T09:28:29;49.50;;;27.00;;
48853;SDS011;34673;52.808;17.856;2022-10-15T09:31:05;49.67;;;27.00;;
48853;SDS011;34673;52.808;17.856;2022-10-15T09:33:39;47.30;;;27.10;;
48853;SDS011;34673;52.808;17.856;2022-10-15T09:44:19;46.40;;;27.95;;
48853;SDS011;34673;52.808;17.856;2022-10-15T09:46:50;44.17;;;27.38;;
48853;SDS011;34673;52.808;17.856;2022-10-15T09:49:24;48.33;;;27.80;;
48853;SDS011;34673;52.808;17.856;2022-10-15T09:52:01;45.50;;;27.33;;
48853;SDS011;34673;52.808;17.856;2022-10-15T09:57:55;45.38;;;26.30;;
48853;SDS011;34673;52.808;17.856;2022-10-15T10:03:33;48.22;;;27.00;;
48853;SDS011;34673;52.808;17.856;2022-10-15T10:06:11;44.15;;;27.20;;
48853;SDS011;34673;52.808;17.856;2022-10-15T10:08:48;49.60;;;28.33;;
48853;SDS011;34673;52.808;17.856;2022-10-15T10:11:18;46.20;;;27.77;;
48853;SDS011;34673;52.808;17.856;2022-10-15T10:16:14;44.65;;;26.67;;
48853;SDS011;34673;52.808;17.856;2022-10-15T10:18:44;43.58;;;27.05;;
48853;SDS011;34673;52.808;17.856;2022-10-15T10:21:33;44.38;;;26.92;;
48853;SDS011;34673;52.808;17.856;2022-10-15T10:26:59;40.17;;;26.90;;
48853;SDS011;34673;52.808;17.856;2022-10-15T10:29:28;40.88;;;24.80;;
48853;SDS011;34673;52.808;17.856;2022-10-15T10:32:08;40.55;;;26.45;;
48853;SDS011;34673;52.808;17.856;2022-10-15T10:34:44;44.63;;;26.27;;
48853;SDS011;34673;52.808;17.856;2022-10-15T10:37:18;42.78;;;25.60;;
48853;SDS011;34673;52.808;17.856;2022-10-15T10:39:53;41.30;;;26.17;;
48853;SDS011;34673;52.808;17.856;2022-10-15T10:44:50;40.58;;;25.95;;
48853;SDS011;34673;52.808;17.856;2022-10-15T10:47:20;44.25;;;27.10;;
48853;SDS011;34673;52.808;17.856;2022-10-15T10:49:56;42.75;;;25.50;;
48853;SDS011;34673;52.808;17.856;2022-10-15T10:54:57;42.10;;;26.50;;
48853;SDS011;34673;52.808;17.856;2022-10-15T10:57:31;40.90;;;25.95;;
48853;SDS011;34673;52.808;17.856;2022-10-15T11:00:06;42.97;;;27.25;;
48853;SDS011;34673;52.808;17.856;2022-10-15T11:02:37;43.88;;;27.23;;
48853;SDS011;34673;52.808;17.856;2022-10-15T11:05:10;43.80;;;26.52;;
48853;SDS011;34673;52.808;17.856;2022-10-15T11:07:50;43.30;;;26.33;;
48853;SDS011;34673;52.808;17.856;2022-10-15T11:10:46;42.13;;;26.88;;
48853;SDS011;34673;52.808;17.856;2022-10-15T11:16:10;45.45;;;27.58;;
48853;SDS011;34673;52.808;17.856;2022-10-15T11:30:04;41.75;;;26.05;;
48853;SDS011;34673;52.808;17.856;2022-10-15T11:38:38;38.78;;;24.10;;
48853;SDS011;34673;52.808;17.856;2022-10-15T11:47:24;35.85;;;22.25;;
48853;SDS011;34673;52.808;17.856;2022-10-15T11:56:01;40.05;;;24.10;;
48853;SDS011;34673;52.808;17.856;2022-10-15T11:58:55;36.67;;;22.67;;
48853;SDS011;34673;52.808;17.856;2022-10-15T12:01:35;38.75;;;23.65;;
48853;SDS011;34673;52.808;17.856;2022-10-15T12:07:00;40.05;;;24.00;;
48853;SDS011;34673;52.808;17.856;2022-10-15T12:09:32;41.15;;;24.10;;
48853;SDS011;34673;52.808;17.856;2022-10-15T12:17:08;38.80;;;23.35;;
48853;SDS011;34673;52.808;17.856;2022-10-15T12:19:53;37.80;;;24.48;;
48853;SDS011;34673;52.808;17.856;2022-10-15T12:22:37;35.63;;;23.30;;
48853;SDS011;34673;52.808;17.856;2022-10-15T12:25:06;40.25;;;25.83;;
48853;SDS011;34673;52.808;17.856;2022-10-15T12:28:16;37.35;;;23.88;;
48853;SDS011;34673;52.808;17.856;2022-10-15T12:30:53;39.50;;;25.27;;
48853;SDS011;34673;52.808;17.856;2022-10-15T12:33:36;39.83;;;23.60;;
48853;SDS011;34673;52.808;17.856;2022-10-15T12:39:00;40.17;;;24.98;;
48853;SDS011;34673;52.808;17.856;2022-10-15T12:41:53;40.92;;;24.58;;
48853;SDS011;34673;52.808;17.856;2022-10-15T12:44:21;41.17;;;25.45;;
48853;SDS011;34673;52.808;17.856;2022-10-15T12:46:59;42.88;;;25.85;;
48853;SDS011;34673;52.808;17.856;2022-10-15T12:51:56;40.95;;;26.42;;
48853;SDS011;34673;52.808;17.856;2022-10-15T12:57:00;37.88;;;23.38;;
48853;SDS011;34673;52.808;17.856;2022-10-15T13:04:59;38.20;;;23.30;;
48853;SDS011;34673;52.808;17.856;2022-10-15T13:07:27;36.45;;;23.77;;
48853;SDS011;34673;52.808;17.856;2022-10-15T13:09:54;40.42;;;26.88;;
48853;SDS011;34673;52.808;17.856;2022-10-15T13:12:24;39.80;;;25.05;;
48853;SDS011;34673;52.808;17.856;2022-10-15T13:14:55;34.17;;;20.65;;
48853;SDS011;34673;52.808;17.856;2022-10-15T13:17:29;30.83;;;20.42;;
48853;SDS011;34673;52.808;17.856;2022-10-15T13:20:02;33.72;;;20.23;;
48853;SDS011;34673;52.808;17.856;2022-10-15T13:22:34;33.38;;;21.08;;
48853;SDS011;34673;52.808;17.856;2022-10-15T13:25:02;30.92;;;20.10;;
48853;SDS011;34673;52.808;17.856;2022-10-15T13:27:34;33.45;;;19.90;;
48853;SDS011;34673;52.808;17.856;2022-10-15T13:30:04;34.92;;;20.42;;
48853;SDS011;34673;52.808;17.856;2022-10-15T13:32:49;35.65;;;20.15;;
48853;SDS011;34673;52.808;17.856;2022-10-15T13:35:20;33.97;;;20.80;;
48853;SDS011;34673;52.808;17.856;2022-10-15T13:37:51;30.92;;;19.55;;
48853;SDS011;34673;52.808;17.856;2022-10-15T13:40:25;31.25;;;20.58;;
48853;SDS011;34673;52.808;17.856;2022-10-15T13:43:05;32.25;;;20.67;;
48853;SDS011;34673;52.808;17.856;2022-10-15T13:45:49;33.38;;;20.33;;
48853;SDS011;34673;52.808;17.856;2022-10-15T13:48:21;39.28;;;21.48;;
48853;SDS011;34673;52.808;17.856;2022-10-15T13:50:52;36.08;;;19.70;;
48853;SDS011;34673;52.808;17.856;2022-10-15T13:53:34;32.78;;;21.15;;
48853;SDS011;34673;52.808;17.856;2022-10-15T13:56:04;31.40;;;20.02;;
48853;SDS011;34673;52.808;17.856;2022-10-15T13:59:01;28.75;;;18.67;;
48853;SDS011;34673;52.808;17.856;2022-10-15T14:01:29;33.05;;;18.83;;
48853;SDS011;34673;52.808;17.856;2022-10-15T14:04:00;31.27;;;19.25;;
48853;SDS011;34673;52.808;17.856;2022-10-15T14:06:30;30.97;;;18.60;;
48853;SDS011;34673;52.808;17.856;2022-10-15T14:09:21;36.60;;;19.83;;
48853;SDS011;34673;52.808;17.856;2022-10-15T14:11:54;27.95;;;18.50;;
48853;SDS011;34673;52.808;17.856;2022-10-15T14:14:39;31.65;;;19.10;;
48853;SDS011;34673;52.808;17.856;2022-10-15T14:17:08;25.38;;;17.48;;
48853;SDS011;34673;52.808;17.856;2022-10-15T14:19:48;26.23;;;14.82;;
48853;SDS011;34673;52.808;17.856;2022-10-15T14:22:39;25.88;;;16.77;;
48853;SDS011;34673;52.808;17.856;2022-10-15T14:25:07;24.20;;;16.23;;
48853;SDS011;34673;52.808;17.856;2022-10-15T14:27:43;27.33;;;16.95;;
48853;SDS011;34673;52.808;17.856;2022-10-15T14:30:12;27.67;;;18.80;;
48853;SDS011;34673;52.808;17.856;2022-10-15T14:32:47;27.08;;;16.95;;
48853;SDS011;34673;52.808;17.856;2022-10-15T14:35:24;28.10;;;17.30;;
48853;SDS011;34673;52.808;17.856;2022-10-15T14:40:29;23.65;;;14.70;;
48853;SDS011;34673;52.808;17.856;2022-10-15T14:43:01;23.80;;;13.27;;
48853;SDS011;34673;52.808;17.856;2022-10-15T14:45:53;25.02;;;12.18;;
48853;SDS011;34673;52.808;17.856;2022-10-15T14:51:03;18.60;;;11.90;;
48853;SDS011;34673;52.808;17.856;2022-10-15T14:53:32;17.48;;;11.00;;
48853;SDS011;34673;52.808;17.856;2022-10-15T14:56:05;15.35;;;9.80;;
48853;SDS011;34673;52.808;17.856;2022-10-15T14:58:39;15.35;;;9.38;;
48853;SDS011;34673;52.808;17.856;2022-10-15T15:01:18;18.25;;;11.10;;
48853;SDS011;34673;52.808;17.856;2022-10-15T15:03:47;17.08;;;10.57;;
48853;SDS011;34673;52.808;17.856;2022-10-15T15:06:16;17.65;;;10.70;;
48853;SDS011;34673;52.808;17.856;2022-10-15T15:08:44;17.65;;;11.32;;
48853;SDS011;34673;52.808;17.856;2022-10-15T15:11:13;20.75;;;12.38;;
48853;SDS011;34673;52.808;17.856;2022-10-15T15:13:44;21.90;;;12.45;;
48853;SDS011;34673;52.808;17.856;2022-10-15T15:16:12;22.35;;;12.23;;
48853;SDS011;34673;52.808;17.856;2022-10-15T15:18:40;23.38;;;12.45;;
48853;SDS011;34673;52.808;17.856;2022-10-15T15:21:10;19.30;;;12.77;;
48853;SDS011;34673;52.808;17.856;2022-10-15T15:23:40;23.67;;;13.82;;
48853;SDS011;34673;52.808;17.856;2022-10-15T15:26:08;20.45;;;13.73;;
48853;SDS011;34673;52.808;17.856;2022-10-15T15:28:36;22.63;;;14.40;;
48853;SDS011;34673;52.808;17.856;2022-10-15T15:31:05;26.25;;;16.60;;
48853;SDS011;34673;52.808;17.856;2022-10-15T15:36:02;25.67;;;16.35;;
48853;SDS011;34673;52.808;17.856;2022-10-15T15:38:33;27.75;;;17.15;;
48853;SDS011;34673;52.808;17.856;2022-10-15T15:41:11;28.17;;;18.02;;
48853;SDS011;34673;52.808;17.856;2022-10-15T15:43:40;28.60;;;17.73;;
48853;SDS011;34673;52.808;17.856;2022-10-15T15:46:08;29.73;;;18.20;;
48853;SDS011;34673;52.808;17.856;2022-10-15T15:48:36;31.63;;;18.33;;
48853;SDS011;34673;52.808;17.856;2022-10-15T15:51:05;29.25;;;16.83;;
48853;SDS011;34673;52.808;17.856;2022-10-15T15:53:35;29.70;;;17.50;;
48853;SDS011;34673;52.808;17.856;2022-10-15T15:56:02;26.33;;;17.05;;
48853;SDS011;34673;52.808;17.856;2022-10-15T15:58:30;28.15;;;17.27;;
48853;SDS011;34673;52.808;17.856;2022-10-15T16:00:57;26.85;;;17.77;;
48853;SDS011;34673;52.808;17.856;2022-10-15T16:03:25;31.30;;;18.45;;
48853;SDS011;34673;52.808;17.856;2022-10-15T16:05:52;30.98;;;18.20;;
48853;SDS011;34673;52.808;17.856;2022-10-15T16:08:20;29.38;;;18.33;;
48853;SDS011;34673;52.808;17.856;2022-10-15T16:10:47;31.15;;;18.90;;
48853;SDS011;34673;52.808;17.856;2022-10-15T16:13:14;34.40;;;19.33;;
48853;SDS011;34673;52.808;17.856;2022-10-15T16:15:41;31.13;;;19.38;;
48853;SDS011;34673;52.808;17.856;2022-10-15T16:18:09;30.73;;;19.73;;
48853;SDS011;34673;52.808;17.856;2022-10-15T16:20:37;31.95;;;18.67;;
48853;SDS011;34673;52.808;17.856;2022-10-15T16:23:14;32.92;;;20.02;;
48853;SDS011;34673;52.808;17.856;2022-10-15T16:25:41;31.10;;;19.75;;
48853;SDS011;34673;52.808;17.856;2022-10-15T16:28:09;29.95;;;19.00;;
48853;SDS011;34673;52.808;17.856;2022-10-15T16:30:36;35.90;;;19.35;;
48853;SDS011;34673;52.808;17.856;2022-10-15T16:33:03;32.88;;;19.90;;
48853;SDS011;34673;52.808;17.856;2022-10-15T16:35:32;38.47;;;20.80;;
48853;SDS011;34673;52.808;17.856;2022-10-15T16:37:59;31.35;;;19.38;;
48853;SDS011;34673;52.808;17.856;2022-10-15T16:40:27;33.70;;;20.95;;
48853;SDS011;34673;52.808;17.856;2022-10-15T16:42:54;42.25;;;20.73;;
48853;SDS011;34673;52.808;17.856;2022-10-15T16:45:21;36.13;;;20.83;;
48853;SDS011;34673;52.808;17.856;2022-10-15T16:47:48;35.78;;;21.00;;
48853;SDS011;34673;52.808;17.856;2022-10-15T16:50:15;37.92;;;21.20;;
48853;SDS011;34673;52.808;17.856;2022-10-15T16:52:43;36.58;;;20.67;;
48853;SDS011;34673;52.808;17.856;2022-10-15T16:55:10;35.47;;;21.88;;